Temp: 8.5°C   Baro: 1005.7mb
  Wind: 4.9mph   Dir: WNW (287°)
  Rain: 0.6mm (0.0mm/hr)
  Sun: 0W/m2  Humidity: 93%

Historic data

Bath Spa Weather Station Historical Data
Daily Summary for October 19, 2022 Units:  Both    English   Metric
Daily Weekly Monthly Yearly Custom
  High: Low: Average:
Temperature: 68.5 °F /  20.3 °C 54 °F /  12.2 °C 59 °F /  15 °C
Dew Point: 58.6 °F /  14.8 °C 49.6 °F /  9.8 °C 53.5 °F /  11.9 °C
Humidity: 90% 70% 82%
Wind Speed: 13.4mph /  21.6km/h - 6.3mph /  10.1km/h
Wind Gust: 26mph /  41.8km/h - -
Wind- - East
Pressure: 30.26 in /  1024.6 hPa 29.80 in /  1009 hPa -
Precipitation: 0.03 in /  0.76 mm    
Historical Graphs
 
 
Tabular Data for October 19, 2022
Time Temperature Dew Point Pressure Wind Wind Speed Wind Gust Humidity Rainfall Rate (Hourly) solar
00:09 56.5 °F /  13.6 °C 49.6 °F /  9.8 °C 30.26in /  1024.6hPa ESE 5.3mph /  8.5km/h 14mph /  22.5km/h 78% 0.00in /  0mm 0 W/m2
00:14 56.5 °F /  13.6 °C 49.8 °F /  9.9 °C 30.26in /  1024.6hPa ENE 4.9mph /  7.9km/h 14mph /  22.5km/h 78.4% 0.00in /  0mm 0 W/m2
00:19 56.5 °F /  13.6 °C 50 °F /  10 °C 30.26in /  1024.6hPa East 6.7mph /  10.8km/h 13mph /  20.9km/h 79% 0.00in /  0mm 0 W/m2
00:24 56.5 °F /  13.6 °C 50 °F /  10 °C 30.25in /  1024.3hPa East 7.1mph /  11.4km/h 15mph /  24.1km/h 79% 0.00in /  0mm 0 W/m2
00:29 56.4 °F /  13.6 °C 49.9 °F /  9.9 °C 30.25in /  1024.3hPa East 7mph /  11.3km/h 16mph /  25.7km/h 79% 0.00in /  0mm 0 W/m2
00:34 56.4 °F /  13.6 °C 49.9 °F /  9.9 °C 30.24in /  1023.9hPa East 6.2mph /  10km/h 13mph /  20.9km/h 79% 0.00in /  0mm 0 W/m2
00:39 56.3 °F /  13.5 °C 49.8 °F /  9.9 °C 30.24in /  1023.9hPa East 6.3mph /  10.1km/h 12mph /  19.3km/h 79% 0.00in /  0mm 0 W/m2
00:44 56.3 °F /  13.5 °C 49.8 °F /  9.9 °C 30.24in /  1023.9hPa East 8.6mph /  13.8km/h 17mph /  27.4km/h 79% 0.00in /  0mm 0 W/m2
00:49 56.2 °F /  13.4 °C 49.7 °F /  9.8 °C 30.24in /  1023.9hPa East 7.1mph /  11.4km/h 17mph /  27.4km/h 79% 0.00in /  0mm 0 W/m2
00:54 56.2 °F /  13.4 °C 49.8 °F /  9.9 °C 30.24in /  1023.9hPa ESE 5.4mph /  8.7km/h 18mph /  29km/h 79.4% 0.00in /  0mm 0 W/m2
00:59 56.1 °F /  13.4 °C 50 °F /  10 °C 30.24in /  1023.9hPa East 3.9mph /  6.3km/h 13mph /  20.9km/h 80% 0.00in /  0mm 0 W/m2
01:04 56.1 °F /  13.4 °C 50 °F /  10 °C 30.24in /  1023.9hPa ESE 6.8mph /  10.9km/h 16mph /  25.7km/h 80% 0.00in /  0mm 0 W/m2
01:09 56.1 °F /  13.4 °C 50 °F /  10 °C 30.24in /  1023.9hPa SE 4mph /  6.4km/h 18mph /  29km/h 80% 0.00in /  0mm 0 W/m2
01:14 56.1 °F /  13.4 °C 50 °F /  10 °C 30.24in /  1023.9hPa East 7.4mph /  11.9km/h 16mph /  25.7km/h 80% 0.00in /  0mm 0 W/m2
01:19 56.1 °F /  13.4 °C 50 °F /  10 °C 30.24in /  1023.9hPa East 7.6mph /  12.2km/h 18mph /  29km/h 80% 0.00in /  0mm 0 W/m2
01:24 56.3 °F /  13.5 °C 50.2 °F /  10.1 °C 30.24in /  1023.9hPa East 3.3mph /  5.3km/h 14mph /  22.5km/h 80% 0.00in /  0mm 0 W/m2
01:29 56.1 °F /  13.4 °C 50 °F /  10 °C 30.24in /  1023.9hPa East 6.6mph /  10.6km/h 15mph /  24.1km/h 80% 0.00in /  0mm 0 W/m2
01:34 56.1 °F /  13.4 °C 50 °F /  10 °C 30.24in /  1023.9hPa ESE 2.7mph /  4.3km/h 9mph /  14.5km/h 80% 0.00in /  0mm 0 W/m2
01:39 56.1 °F /  13.4 °C 50.4 °F /  10.2 °C 30.24in /  1023.9hPa ESE 5mph /  8km/h 9mph /  14.5km/h 81% 0.00in /  0mm 0 W/m2
01:44 56.1 °F /  13.4 °C 50.4 °F /  10.2 °C 30.24in /  1023.9hPa East 4.8mph /  7.7km/h 9mph /  14.5km/h 81% 0.00in /  0mm 0 W/m2
01:49 56.1 °F /  13.4 °C 50.4 °F /  10.2 °C 30.23in /  1023.6hPa East 2.5mph /  4km/h 9mph /  14.5km/h 81% 0.00in /  0mm 0 W/m2
01:54 56.1 °F /  13.4 °C 50.4 °F /  10.2 °C 30.24in /  1023.9hPa NE 1.9mph /  3.1km/h 5mph /  8km/h 81% 0.00in /  0mm 0 W/m2
01:59 55.9 °F /  13.3 °C 50.2 °F /  10.1 °C 30.24in /  1023.9hPa ESE 2.8mph /  4.5km/h 8mph /  12.9km/h 81% 0.00in /  0mm 0 W/m2
02:04 55.9 °F /  13.3 °C 50.5 °F /  10.3 °C 30.24in /  1023.9hPa SE 2.8mph /  4.5km/h 9mph /  14.5km/h 82% 0.00in /  0mm 0 W/m2
02:09 55.9 °F /  13.3 °C 50.5 °F /  10.3 °C 30.24in /  1023.9hPa East 4.8mph /  7.7km/h 10mph /  16.1km/h 82% 0.00in /  0mm 0 W/m2
02:14 55.9 °F /  13.3 °C 50.5 °F /  10.3 °C 30.24in /  1023.9hPa ESE 3.7mph /  6km/h 9mph /  14.5km/h 82% 0.00in /  0mm 0 W/m2
02:19 55.9 °F /  13.3 °C 50.5 °F /  10.3 °C 30.24in /  1023.9hPa East 4mph /  6.4km/h 10mph /  16.1km/h 82% 0.00in /  0mm 0 W/m2
02:24 55.9 °F /  13.3 °C 50.5 °F /  10.3 °C 30.24in /  1023.9hPa ESE 1.7mph /  2.7km/h 8mph /  12.9km/h 82% 0.00in /  0mm 0 W/m2
02:29 55.8 °F /  13.2 °C 50.4 °F /  10.2 °C 30.24in /  1023.9hPa East 3.3mph /  5.3km/h 10mph /  16.1km/h 82% 0.00in /  0mm 0 W/m2
02:34 55.8 °F /  13.2 °C 50.4 °F /  10.2 °C 30.23in /  1023.6hPa ENE 4mph /  6.4km/h 13mph /  20.9km/h 82% 0.00in /  0mm 0 W/m2
02:39 55.8 °F /  13.2 °C 50.4 °F /  10.2 °C 30.24in /  1023.9hPa East 4.1mph /  6.6km/h 9mph /  14.5km/h 82% 0.00in /  0mm 0 W/m2
02:44 55.8 °F /  13.2 °C 50.6 °F /  10.3 °C 30.24in /  1023.9hPa East 2mph /  3.2km/h 10mph /  16.1km/h 82.8% 0.00in /  0mm 0 W/m2
02:49 55.8 °F /  13.2 °C 50.7 °F /  10.4 °C 30.24in /  1023.9hPa ESE 3.7mph /  6km/h 8mph /  12.9km/h 83% 0.00in /  0mm 0 W/m2
02:54 55.8 °F /  13.2 °C 50.7 °F /  10.4 °C 30.24in /  1023.9hPa NE 2.1mph /  3.4km/h 7mph /  11.3km/h 83% 0.00in /  0mm 0 W/m2
02:59 55.8 °F /  13.2 °C 50.7 °F /  10.4 °C 30.24in /  1023.9hPa NE 1mph /  1.6km/h 4mph /  6.4km/h 83% 0.00in /  0mm 0 W/m2
03:04 55.8 °F /  13.2 °C 50.7 °F /  10.4 °C 30.24in /  1023.9hPa ENE 2mph /  3.2km/h 7mph /  11.3km/h 83% 0.00in /  0mm 0 W/m2
03:09 55.8 °F /  13.2 °C 50.7 °F /  10.4 °C 30.24in /  1023.9hPa NE 2.5mph /  4km/h 10mph /  16.1km/h 83% 0.00in /  0mm 0 W/m2
03:14 55.8 °F /  13.2 °C 50.7 °F /  10.4 °C 30.23in /  1023.6hPa NE 3.3mph /  5.3km/h 10mph /  16.1km/h 83% 0.00in /  0mm 0 W/m2
03:19 55.6 °F /  13.1 °C 50.5 °F /  10.3 °C 30.23in /  1023.6hPa ENE 4.5mph /  7.2km/h 10mph /  16.1km/h 83% 0.00in /  0mm 0 W/m2
03:24 55.6 °F /  13.1 °C 50.7 °F /  10.4 °C 30.22in /  1023.2hPa ENE 4.1mph /  6.6km/h 11mph /  17.7km/h 83.4% 0.00in /  0mm 0 W/m2
03:29 55.6 °F /  13.1 °C 50.6 °F /  10.3 °C 30.22in /  1023.2hPa NE 3.2mph /  5.1km/h 9mph /  14.5km/h 83.2% 0.00in /  0mm 0 W/m2
03:34 55.5 °F /  13.1 °C 50.7 °F /  10.4 °C 30.21in /  1022.9hPa East 5.9mph /  9.5km/h 11mph /  17.7km/h 83.6% 0.00in /  0mm 0 W/m2
03:39 55.4 °F /  13 °C 50.7 °F /  10.4 °C 30.20in /  1022.6hPa ENE 6.4mph /  10.3km/h 15mph /  24.1km/h 84% 0.00in /  0mm 0 W/m2
03:44 55.2 °F /  12.9 °C 50.5 °F /  10.3 °C 30.19in /  1022.2hPa East 6.3mph /  10.1km/h 15mph /  24.1km/h 84% 0.00in /  0mm 0 W/m2
03:49 55 °F /  12.8 °C 50.4 °F /  10.2 °C 30.19in /  1022.2hPa East 3.5mph /  5.6km/h 13mph /  20.9km/h 84% 0.00in /  0mm 0 W/m2
03:54 55 °F /  12.8 °C 50.4 °F /  10.2 °C 30.20in /  1022.6hPa ENE 4mph /  6.4km/h 11mph /  17.7km/h 84.4% 0.00in /  0mm 0 W/m2
03:59 54.9 °F /  12.7 °C 50.4 °F /  10.2 °C 30.20in /  1022.6hPa SE 1.8mph /  2.9km/h 11mph /  17.7km/h 85% 0.00in /  0mm 0 W/m2
04:04 54.9 °F /  12.7 °C 50.4 °F /  10.2 °C 30.20in /  1022.6hPa East 3.9mph /  6.3km/h 11mph /  17.7km/h 85% 0.00in /  0mm 0 W/m2
04:09 54.9 °F /  12.7 °C 50.6 °F /  10.3 °C 30.19in /  1022.2hPa East 4.1mph /  6.6km/h 9mph /  14.5km/h 85.6% 0.00in /  0mm 0 W/m2
04:14 54.9 °F /  12.7 °C 50.7 °F /  10.4 °C 30.19in /  1022.2hPa ENE 5.3mph /  8.5km/h 9mph /  14.5km/h 86% 0.00in /  0mm 0 W/m2
04:19 54.7 °F /  12.6 °C 50.5 °F /  10.3 °C 30.19in /  1022.2hPa ESE 4.6mph /  7.4km/h 11mph /  17.7km/h 86% 0.00in /  0mm 0 W/m2
04:24 54.7 °F /  12.6 °C 50.5 °F /  10.3 °C 30.19in /  1022.2hPa East 6.6mph /  10.6km/h 11mph /  17.7km/h 86% 0.00in /  0mm 0 W/m2
04:29 54.7 °F /  12.6 °C 50.5 °F /  10.3 °C 30.19in /  1022.2hPa ESE 2.9mph /  4.7km/h 8mph /  12.9km/h 86% 0.00in /  0mm 0 W/m2
04:34 54.7 °F /  12.6 °C 50.5 °F /  10.3 °C 30.19in /  1022.2hPa ESE 6mph /  9.7km/h 12mph /  19.3km/h 86% 0.00in /  0mm 0 W/m2
04:39 54.7 °F /  12.6 °C 50.7 °F /  10.4 °C 30.19in /  1022.2hPa East 7.2mph /  11.6km/h 14mph /  22.5km/h 86.4% 0.00in /  0mm 0 W/m2
04:44 54.7 °F /  12.6 °C 50.9 °F /  10.5 °C 30.18in /  1021.9hPa ESE 7.8mph /  12.6km/h 14mph /  22.5km/h 87% 0.00in /  0mm 0 W/m2
04:49 54.7 °F /  12.6 °C 50.9 °F /  10.5 °C 30.17in /  1021.6hPa ESE 5.6mph /  9km/h 12mph /  19.3km/h 87% 0.00in /  0mm 0 W/m2
04:54 54.7 °F /  12.6 °C 50.9 °F /  10.5 °C 30.17in /  1021.6hPa East 6.1mph /  9.8km/h 14mph /  22.5km/h 87% 0.00in /  0mm 0 W/m2
04:59 54.7 °F /  12.6 °C 50.9 °F /  10.5 °C 30.18in /  1021.9hPa East 6.7mph /  10.8km/h 12mph /  19.3km/h 87% 0.00in /  0mm 0 W/m2
05:04 54.7 °F /  12.6 °C 50.9 °F /  10.5 °C 30.17in /  1021.6hPa East 6.8mph /  10.9km/h 15mph /  24.1km/h 87% 0.00in /  0mm 0 W/m2
05:09 54.7 °F /  12.6 °C 50.9 °F /  10.5 °C 30.17in /  1021.6hPa East 4.6mph /  7.4km/h 9mph /  14.5km/h 87% 0.00in /  0mm 0 W/m2
05:14 54.7 °F /  12.6 °C 50.9 °F /  10.5 °C 30.16in /  1021.2hPa ENE 6mph /  9.7km/h 14mph /  22.5km/h 87% 0.00in /  0mm 0 W/m2
05:19 54.7 °F /  12.6 °C 50.9 °F /  10.5 °C 30.16in /  1021.2hPa East 5.2mph /  8.4km/h 14mph /  22.5km/h 87% 0.00in /  0mm 0 W/m2
05:24 54.7 °F /  12.6 °C 50.9 °F /  10.5 °C 30.16in /  1021.2hPa ENE 3.6mph /  5.8km/h 14mph /  22.5km/h 87% 0.00in /  0mm 0 W/m2
05:29 54.7 °F /  12.6 °C 50.9 °F /  10.5 °C 30.16in /  1021.2hPa ESE 5.2mph /  8.4km/h 14mph /  22.5km/h 87% 0.00in /  0mm 0 W/m2
05:34 54.7 °F /  12.6 °C 50.9 °F /  10.5 °C 30.16in /  1021.2hPa East 4.9mph /  7.9km/h 11mph /  17.7km/h 87% 0.00in /  0mm 0 W/m2
05:39 54.7 °F /  12.6 °C 50.9 °F /  10.5 °C 30.17in /  1021.6hPa East 3.6mph /  5.8km/h 9mph /  14.5km/h 87% 0.00in /  0mm 0 W/m2
05:44 54.7 °F /  12.6 °C 50.9 °F /  10.5 °C 30.17in /  1021.6hPa East 4.4mph /  7.1km/h 11mph /  17.7km/h 87% 0.00in /  0mm 0 W/m2
05:49 54.7 °F /  12.6 °C 50.9 °F /  10.5 °C 30.17in /  1021.6hPa ESE 3.6mph /  5.8km/h 10mph /  16.1km/h 87% 0.00in /  0mm 0 W/m2
05:54 54.7 °F /  12.6 °C 50.9 °F /  10.5 °C 30.17in /  1021.6hPa ESE 6.8mph /  10.9km/h 10mph /  16.1km/h 87% 0.00in /  0mm 0 W/m2
05:59 54.7 °F /  12.6 °C 50.9 °F /  10.5 °C 30.17in /  1021.6hPa ENE 5.8mph /  9.3km/h 14mph /  22.5km/h 87% 0.00in /  0mm 0 W/m2
06:04 54.5 °F /  12.5 °C 50.6 °F /  10.3 °C 30.16in /  1021.2hPa ENE 4.6mph /  7.4km/h 14mph /  22.5km/h 86.4% 0.00in /  0mm 0 W/m2
06:09 54.3 °F /  12.4 °C 50.4 °F /  10.2 °C 30.16in /  1021.2hPa East 7mph /  11.3km/h 15mph /  24.1km/h 86.4% 0.00in /  0mm 0 W/m2
06:14 54.3 °F /  12.4 °C 50.5 °F /  10.3 °C 30.16in /  1021.2hPa East 7mph /  11.3km/h 14mph /  22.5km/h 87% 0.00in /  0mm 0 W/m2
06:19 54.3 °F /  12.4 °C 50.5 °F /  10.3 °C 30.16in /  1021.2hPa ESE 4.8mph /  7.7km/h 10mph /  16.1km/h 87% 0.00in /  0mm 0 W/m2
06:24 54.1 °F /  12.3 °C 50.4 °F /  10.2 °C 30.16in /  1021.2hPa East 5.1mph /  8.2km/h 11mph /  17.7km/h 87% 0.00in /  0mm 0 W/m2
06:29 54.1 °F /  12.3 °C 50.4 °F /  10.2 °C 30.15in /  1020.9hPa ESE 4.2mph /  6.8km/h 12mph /  19.3km/h 87% 0.00in /  0mm 0 W/m2
06:34 54.1 °F /  12.3 °C 50.4 °F /  10.2 °C 30.15in /  1020.9hPa East 5.4mph /  8.7km/h 14mph /  22.5km/h 87% 0.00in /  0mm 0 W/m2
06:39 54.1 °F /  12.3 °C 50.4 °F /  10.2 °C 30.15in /  1020.9hPa East 8mph /  12.9km/h 14mph /  22.5km/h 87% 0.00in /  0mm 0 W/m2
06:44 54.1 °F /  12.3 °C 50.4 °F /  10.2 °C 30.15in /  1020.9hPa East 5.7mph /  9.2km/h 13mph /  20.9km/h 87% 0.00in /  0mm 0 W/m2
06:49 54.1 °F /  12.3 °C 50.4 °F /  10.2 °C 30.15in /  1020.9hPa ESE 7.5mph /  12.1km/h 13mph /  20.9km/h 87% 0.00in /  0mm 0 W/m2
06:54 54.1 °F /  12.3 °C 50.4 °F /  10.2 °C 30.15in /  1020.9hPa ENE 5.1mph /  8.2km/h 10mph /  16.1km/h 87% 0.00in /  0mm 0 W/m2
06:59 54.2 °F /  12.3 °C 50.5 °F /  10.3 °C 30.14in /  1020.5hPa East 7.4mph /  11.9km/h 14mph /  22.5km/h 87% 0.00in /  0mm 0 W/m2
07:04 54.3 °F /  12.4 °C 50.5 °F /  10.3 °C 30.14in /  1020.5hPa ESE 2.9mph /  4.7km/h 12mph /  19.3km/h 87% 0.00in /  0mm 0 W/m2
07:09 54.3 °F /  12.4 °C 50.5 °F /  10.3 °C 30.14in /  1020.5hPa East 5.8mph /  9.3km/h 12mph /  19.3km/h 87% 0.00in /  0mm 0 W/m2
07:14 54.4 °F /  12.4 °C 50.6 °F /  10.3 °C 30.14in /  1020.5hPa ENE 3.3mph /  5.3km/h 9mph /  14.5km/h 87% 0.00in /  0mm 0 W/m2
07:19 54.5 °F /  12.5 °C 50.7 °F /  10.4 °C 30.14in /  1020.5hPa East 7.7mph /  12.4km/h 12mph /  19.3km/h 87% 0.00in /  0mm 0 W/m2
07:24 54.5 °F /  12.5 °C 50.7 °F /  10.4 °C 30.13in /  1020.2hPa ENE 8mph /  12.9km/h 13mph /  20.9km/h 87% 0.00in /  0mm 0 W/m2
07:29 54.4 °F /  12.4 °C 50.6 °F /  10.3 °C 30.13in /  1020.2hPa ENE 5.6mph /  9km/h 13mph /  20.9km/h 87% 0.00in /  0mm 0 W/m2
07:34 54.3 °F /  12.4 °C 50.5 °F /  10.3 °C 30.13in /  1020.2hPa ENE 5.9mph /  9.5km/h 11mph /  17.7km/h 87% 0.00in /  0mm 0 W/m2
07:39 54.2 °F /  12.3 °C 50.4 °F /  10.2 °C 30.13in /  1020.2hPa ENE 5mph /  8km/h 13mph /  20.9km/h 87% 0.00in /  0mm 0 W/m2
07:44 54.1 °F /  12.3 °C 50.4 °F /  10.2 °C 30.13in /  1020.2hPa ENE 5.1mph /  8.2km/h 11mph /  17.7km/h 87% 0.00in /  0mm 0 W/m2
07:49 54.1 °F /  12.3 °C 50.3 °F /  10.2 °C 30.13in /  1020.2hPa NE 2.7mph /  4.3km/h 12mph /  19.3km/h 87% 0.00in /  0mm 0 W/m2
07:54 54 °F /  12.2 °C 50.2 °F /  10.1 °C 30.13in /  1020.2hPa ENE 4.3mph /  6.9km/h 11mph /  17.7km/h 87% 0.00in /  0mm 0 W/m2
07:59 54.1 °F /  12.3 °C 50.3 °F /  10.2 °C 30.13in /  1020.2hPa East 5.7mph /  9.2km/h 12mph /  19.3km/h 87% 0.00in /  0mm 5 W/m2
08:04 54.1 °F /  12.3 °C 50.4 °F /  10.2 °C 30.13in /  1020.2hPa East 3.4mph /  5.5km/h 11mph /  17.7km/h 87% 0.00in /  0mm 7 W/m2
08:09 54.1 °F /  12.3 °C 50.4 °F /  10.2 °C 30.14in /  1020.5hPa ENE 4.5mph /  7.2km/h 11mph /  17.7km/h 87% 0.00in /  0mm 9 W/m2
08:14 54.1 °F /  12.3 °C 50.4 °F /  10.2 °C 30.13in /  1020.2hPa East 4.2mph /  6.8km/h 10mph /  16.1km/h 87% 0.00in /  0mm 12 W/m2
08:19 54.1 °F /  12.3 °C 50.4 °F /  10.2 °C 30.13in /  1020.2hPa ESE 7.5mph /  12.1km/h 16mph /  25.7km/h 87% 0.00in /  0mm 12 W/m2
08:24 54.1 °F /  12.3 °C 50.4 °F /  10.2 °C 30.13in /  1020.2hPa East 5.5mph /  8.9km/h 16mph /  25.7km/h 87% 0.00in /  0mm 14 W/m2
08:29 54.3 °F /  12.4 °C 50.5 °F /  10.3 °C 30.13in /  1020.2hPa East 3.9mph /  6.3km/h 15mph /  24.1km/h 87% 0.00in /  0mm 16 W/m2
08:34 54.4 °F /  12.4 °C 50.9 °F /  10.5 °C 30.12in /  1019.9hPa East 7.1mph /  11.4km/h 14mph /  22.5km/h 87.8% 0.00in /  0mm 23 W/m2
08:39 54.7 °F /  12.6 °C 51.3 °F /  10.7 °C 30.12in /  1019.9hPa East 6.8mph /  10.9km/h 17mph /  27.4km/h 88% 0.00in /  0mm 32 W/m2
08:44 54.8 °F /  12.7 °C 51.3 °F /  10.7 °C 30.11in /  1019.5hPa East 6.6mph /  10.6km/h 15mph /  24.1km/h 88% 0.00in /  0mm 37 W/m2
08:49 54.9 °F /  12.7 °C 51.4 °F /  10.8 °C 30.11in /  1019.5hPa East 8mph /  12.9km/h 19mph /  30.6km/h 88% 0.00in /  0mm 40 W/m2
08:54 55 °F /  12.8 °C 51.6 °F /  10.9 °C 30.11in /  1019.5hPa East 7.6mph /  12.2km/h 15mph /  24.1km/h 88% 0.00in /  0mm 49 W/m2
08:59 55.1 °F /  12.8 °C 51.7 °F /  10.9 °C 30.11in /  1019.5hPa ENE 4.8mph /  7.7km/h 15mph /  24.1km/h 88% 0.00in /  0mm 51 W/m2
09:04 55.2 °F /  12.9 °C 51.8 °F /  11 °C 30.11in /  1019.5hPa ESE 8.8mph /  14.2km/h 15mph /  24.1km/h 88% 0.00in /  0mm 53 W/m2
09:09 55.3 °F /  12.9 °C 51.9 °F /  11.1 °C 30.11in /  1019.5hPa ESE 5.9mph /  9.5km/h 14mph /  22.5km/h 88% 0.00in /  0mm 56 W/m2
09:14 55.4 °F /  13 °C 52 °F /  11.1 °C 30.11in /  1019.5hPa East 5.8mph /  9.3km/h 12mph /  19.3km/h 88% 0.00in /  0mm 62 W/m2
09:19 55.6 °F /  13.1 °C 51.9 °F /  11.1 °C 30.11in /  1019.5hPa East 7.4mph /  11.9km/h 16mph /  25.7km/h 87.4% 0.00in /  0mm 60 W/m2
09:24 55.6 °F /  13.1 °C 51.8 °F /  11 °C 30.10in /  1019.2hPa ESE 6.8mph /  10.9km/h 18mph /  29km/h 87% 0.00in /  0mm 81 W/m2
09:29 55.8 °F /  13.2 °C 52 °F /  11.1 °C 30.10in /  1019.2hPa ENE 8mph /  12.9km/h 14mph /  22.5km/h 87% 0.00in /  0mm 100 W/m2
09:34 55.9 °F /  13.3 °C 52.1 °F /  11.2 °C 30.10in /  1019.2hPa East 4.7mph /  7.6km/h 19mph /  30.6km/h 87% 0.00in /  0mm 125 W/m2
09:39 56.1 °F /  13.4 °C 52.2 °F /  11.2 °C 30.10in /  1019.2hPa East 7mph /  11.3km/h 18mph /  29km/h 86.6% 0.00in /  0mm 123 W/m2
09:44 56.3 °F /  13.5 °C 52.1 °F /  11.2 °C 30.10in /  1019.2hPa East 6.6mph /  10.6km/h 13mph /  20.9km/h 86% 0.00in /  0mm 141 W/m2
09:48 56.5 °F /  13.6 °C 52.3 °F /  11.3 °C 30.10in /  1019.2hPa East 7.8mph /  12.6km/h 17mph /  27.4km/h 86% 0.00in /  0mm 146 W/m2
09:54 56.7 °F /  13.7 °C 52.4 °F /  11.3 °C 30.10in /  1019.2hPa East 4.2mph /  6.8km/h 17mph /  27.4km/h 85.8% 0.00in /  0mm 167 W/m2
09:59 56.9 °F /  13.8 °C 52.5 °F /  11.4 °C 30.10in /  1019.2hPa ENE 8.4mph /  13.5km/h 15mph /  24.1km/h 85.2% 0.00in /  0mm 176 W/m2
10:04 57 °F /  13.9 °C 52.5 °F /  11.4 °C 30.10in /  1019.2hPa East 9.7mph /  15.6km/h 21mph /  33.8km/h 85% 0.00in /  0mm 127 W/m2
10:09 57 °F /  13.9 °C 52.3 °F /  11.3 °C 30.10in /  1019.2hPa ESE 7.4mph /  11.9km/h 21mph /  33.8km/h 84.4% 0.00in /  0mm 114 W/m2
10:14 57 °F /  13.9 °C 52.2 °F /  11.2 °C 30.09in /  1018.8hPa East 8mph /  12.9km/h 25mph /  40.2km/h 84% 0.00in /  0mm 258 W/m2
10:19 57.5 °F /  14.2 °C 52.6 °F /  11.4 °C 30.09in /  1018.8hPa ESE 5.1mph /  8.2km/h 16mph /  25.7km/h 84% 0.00in /  0mm 260 W/m2
10:24 57.9 °F /  14.4 °C 53 °F /  11.7 °C 30.09in /  1018.8hPa East 7mph /  11.3km/h 15mph /  24.1km/h 83.8% 0.00in /  0mm 211 W/m2
10:29 58.2 °F /  14.6 °C 53.1 °F /  11.7 °C 30.09in /  1018.8hPa East 7.2mph /  11.6km/h 15mph /  24.1km/h 83.2% 0.00in /  0mm 135 W/m2
10:34 58.2 °F /  14.6 °C 53 °F /  11.7 °C 30.09in /  1018.8hPa ESE 7.4mph /  11.9km/h 14mph /  22.5km/h 83% 0.00in /  0mm 107 W/m2
10:39 57.9 °F /  14.4 °C 52.7 °F /  11.5 °C 30.09in /  1018.8hPa East 9.3mph /  15km/h 17mph /  27.4km/h 83% 0.00in /  0mm 116 W/m2
10:44 58.1 °F /  14.5 °C 52.9 °F /  11.6 °C 30.09in /  1018.8hPa East 8.2mph /  13.2km/h 15mph /  24.1km/h 83% 0.00in /  0mm 121 W/m2
10:49 58.4 °F /  14.7 °C 53.1 °F /  11.7 °C 30.09in /  1018.8hPa ESE 5.9mph /  9.5km/h 14mph /  22.5km/h 83% 0.00in /  0mm 338 W/m2
10:54 59.1 °F /  15.1 °C 53.8 °F /  12.1 °C 30.09in /  1018.8hPa East 6.5mph /  10.5km/h 17mph /  27.4km/h 82.8% 0.00in /  0mm 360 W/m2
10:59 60 °F /  15.6 °C 54.4 °F /  12.4 °C 30.08in /  1018.5hPa East 9.4mph /  15.1km/h 22mph /  35.4km/h 81.8% 0.00in /  0mm 350 W/m2
11:04 60.1 °F /  15.6 °C 54.2 °F /  12.3 °C 30.08in /  1018.5hPa ESE 5.4mph /  8.7km/h 15mph /  24.1km/h 80.8% 0.00in /  0mm 269 W/m2
11:09 60.1 °F /  15.6 °C 54.1 °F /  12.3 °C 30.07in /  1018.2hPa East 6.3mph /  10.1km/h 18mph /  29km/h 80.2% 0.00in /  0mm 237 W/m2
11:14 60.1 °F /  15.6 °C 54 °F /  12.2 °C 30.07in /  1018.2hPa East 10mph /  16.1km/h 17mph /  27.4km/h 80.2% 0.00in /  0mm 348 W/m2
11:19 60.4 °F /  15.8 °C 54.3 °F /  12.4 °C 30.07in /  1018.2hPa East 7.8mph /  12.6km/h 18mph /  29km/h 80.2% 0.00in /  0mm 309 W/m2
11:24 60.5 °F /  15.8 °C 54.4 °F /  12.4 °C 30.07in /  1018.2hPa ESE 7.2mph /  11.6km/h 16mph /  25.7km/h 80% 0.00in /  0mm 355 W/m2
11:29 61.1 °F /  16.2 °C 54.8 °F /  12.7 °C 30.06in /  1017.8hPa East 6.6mph /  10.6km/h 14mph /  22.5km/h 80% 0.00in /  0mm 396 W/m2
11:34 61.9 °F /  16.6 °C 55.4 °F /  13 °C 30.06in /  1017.8hPa ESE 8.8mph /  14.2km/h 16mph /  25.7km/h 79.6% 0.00in /  0mm 353 W/m2
11:39 62.1 °F /  16.7 °C 55.2 °F /  12.9 °C 30.06in /  1017.8hPa ENE 8.2mph /  13.2km/h 16mph /  25.7km/h 78.6% 0.00in /  0mm 276 W/m2
11:44 62.2 °F /  16.8 °C 55.2 °F /  12.9 °C 30.06in /  1017.8hPa East 6.3mph /  10.1km/h 16mph /  25.7km/h 78% 0.00in /  0mm 309 W/m2
11:49 62.2 °F /  16.8 °C 55.1 °F /  12.8 °C 30.05in /  1017.5hPa East 7.2mph /  11.6km/h 15mph /  24.1km/h 78% 0.00in /  0mm 339 W/m2
11:54 62.2 °F /  16.8 °C 55.2 °F /  12.9 °C 30.05in /  1017.5hPa ESE 5.6mph /  9km/h 14mph /  22.5km/h 78% 0.00in /  0mm 383 W/m2
11:59 62.8 °F /  17.1 °C 55.7 °F /  13.2 °C 30.05in /  1017.5hPa ESE 7mph /  11.3km/h 19mph /  30.6km/h 78% 0.00in /  0mm 396 W/m2
12:04 63.3 °F /  17.4 °C 56 °F /  13.3 °C 30.05in /  1017.5hPa East 9.8mph /  15.8km/h 19mph /  30.6km/h 77.2% 0.00in /  0mm 371 W/m2
12:09 63.5 °F /  17.5 °C 55.9 °F /  13.3 °C 30.05in /  1017.5hPa East 6.4mph /  10.3km/h 21mph /  33.8km/h 76.4% 0.00in /  0mm 394 W/m2
12:14 63.7 °F /  17.6 °C 55.9 °F /  13.3 °C 30.04in /  1017.2hPa ESE 8.1mph /  13km/h 17mph /  27.4km/h 76% 0.00in /  0mm 313 W/m2
12:19 63.6 °F /  17.6 °C 55.9 °F /  13.3 °C 30.04in /  1017.2hPa ESE 7.1mph /  11.4km/h 18mph /  29km/h 76% 0.00in /  0mm 158 W/m2
12:24 63.6 °F /  17.6 °C 56 °F /  13.3 °C 30.03in /  1016.8hPa ENE 5.4mph /  8.7km/h 14mph /  22.5km/h 76.4% 0.00in /  0mm 250 W/m2
12:29 63.9 °F /  17.7 °C 56.5 °F /  13.6 °C 30.03in /  1016.8hPa East 5.9mph /  9.5km/h 22mph /  35.4km/h 77% 0.00in /  0mm 253 W/m2
12:34 64.4 °F /  18 °C 56.8 °F /  13.8 °C 30.03in /  1016.8hPa East 10mph /  16.1km/h 19mph /  30.6km/h 76.4% 0.00in /  0mm 476 W/m2
12:39 64.8 °F /  18.2 °C 57 °F /  13.9 °C 30.02in /  1016.5hPa East 11.4mph /  18.3km/h 26mph /  41.8km/h 75.8% 0.00in /  0mm 476 W/m2
12:44 65.3 °F /  18.5 °C 57.2 °F /  14 °C 30.02in /  1016.5hPa East 10.6mph /  17.1km/h 26mph /  41.8km/h 75% 0.00in /  0mm 403 W/m2
12:49 65.4 °F /  18.6 °C 57 °F /  13.9 °C 30.01in /  1016.1hPa East 8.8mph /  14.2km/h 24mph /  38.6km/h 74.2% 0.00in /  0mm 359 W/m2
12:54 65.1 °F /  18.4 °C 56.7 °F /  13.7 °C 30.01in /  1016.1hPa East 11.3mph /  18.2km/h 25mph /  40.2km/h 74.3% 0.00in /  0mm 380 W/m2
12:59 65.1 °F /  18.4 °C 56.8 °F /  13.8 °C 30.01in /  1016.1hPa East 5.8mph /  9.3km/h 22mph /  35.4km/h 74.4% 0.00in /  0mm 383 W/m2
13:04 65.3 °F /  18.5 °C 57.2 °F /  14 °C 30.01in /  1016.1hPa East 11.2mph /  18km/h 21mph /  33.8km/h 75% 0.00in /  0mm 410 W/m2
13:09 65.6 °F /  18.7 °C 57.3 °F /  14.1 °C 30.00in /  1015.8hPa ESE 8.2mph /  13.2km/h 22mph /  35.4km/h 74.4% 0.00in /  0mm 408 W/m2
13:14 65.7 °F /  18.7 °C 57.3 °F /  14.1 °C 30.00in /  1015.8hPa SE 7mph /  11.3km/h 19mph /  30.6km/h 74% 0.00in /  0mm 387 W/m2
13:19 65.7 °F /  18.7 °C 57.3 °F /  14.1 °C 30.00in /  1015.8hPa East 11.2mph /  18km/h 21mph /  33.8km/h 74% 0.00in /  0mm 443 W/m2
13:24 66 °F /  18.9 °C 57.6 °F /  14.2 °C 30.00in /  1015.8hPa East 10.7mph /  17.2km/h 25mph /  40.2km/h 74% 0.00in /  0mm 397 W/m2
13:29 65.8 °F /  18.8 °C 57.3 °F /  14.1 °C 29.99in /  1015.5hPa East 9.4mph /  15.1km/h 25mph /  40.2km/h 73.6% 0.00in /  0mm 292 W/m2
13:34 65.7 °F /  18.7 °C 57.2 °F /  14 °C 29.99in /  1015.5hPa East 8mph /  12.9km/h 23mph /  37km/h 74% 0.00in /  0mm 357 W/m2
13:39 65.8 °F /  18.8 °C 57.4 °F /  14.1 °C 29.99in /  1015.5hPa ESE 10.6mph /  17.1km/h 24mph /  38.6km/h 74% 0.00in /  0mm 404 W/m2
13:44 65.8 °F /  18.8 °C 57.2 °F /  14 °C 29.99in /  1015.5hPa ESE 6.4mph /  10.3km/h 19mph /  30.6km/h 73.6% 0.00in /  0mm 236 W/m2
13:49 65.9 °F /  18.8 °C 57.5 °F /  14.2 °C 29.98in /  1015.1hPa ESE 10.4mph /  16.7km/h 23mph /  37km/h 74% 0.00in /  0mm 336 W/m2
13:54 66.1 °F /  18.9 °C 57.4 °F /  14.1 °C 29.98in /  1015.1hPa East 10.5mph /  16.9km/h 16mph /  25.7km/h 73.4% 0.00in /  0mm 457 W/m2
13:59 66.5 °F /  19.2 °C 57.7 °F /  14.3 °C 29.98in /  1015.1hPa East 11.6mph /  18.7km/h 23mph /  37km/h 73.4% 0.00in /  0mm 417 W/m2
14:04 66.7 °F /  19.3 °C 57.7 °F /  14.3 °C 29.97in /  1014.8hPa ESE 9.8mph /  15.8km/h 23mph /  37km/h 73% 0.00in /  0mm 380 W/m2
14:09 66.9 °F /  19.4 °C 57.7 °F /  14.3 °C 29.97in /  1014.8hPa ESE 7mph /  11.3km/h 22mph /  35.4km/h 72.6% 0.00in /  0mm 367 W/m2
14:14 67.3 °F /  19.6 °C 58.1 °F /  14.5 °C 29.97in /  1014.8hPa ESE 8.6mph /  13.8km/h 22mph /  35.4km/h 72.6% 0.00in /  0mm 434 W/m2
14:19 67.5 °F /  19.7 °C 58.2 °F /  14.6 °C 29.96in /  1014.4hPa ESE 4.3mph /  6.9km/h 22mph /  35.4km/h 72% 0.00in /  0mm 439 W/m2
14:24 68 °F /  20 °C 58.5 °F /  14.7 °C 29.96in /  1014.4hPa ESE 12.1mph /  19.5km/h 22mph /  35.4km/h 71.8% 0.00in /  0mm 431 W/m2
14:29 68.3 °F /  20.2 °C 58.6 °F /  14.8 °C 29.96in /  1014.4hPa ESE 9.2mph /  14.8km/h 25mph /  40.2km/h 71% 0.00in /  0mm 404 W/m2
14:34 68.2 °F /  20.1 °C 58.5 °F /  14.7 °C 29.95in /  1014.1hPa East 13.4mph /  21.6km/h 26mph /  41.8km/h 71% 0.00in /  0mm 399 W/m2
14:39 68.3 °F /  20.2 °C 58.6 °F /  14.8 °C 29.95in /  1014.1hPa ESE 8.4mph /  13.5km/h 22mph /  35.4km/h 71% 0.00in /  0mm 392 W/m2
14:44 68.5 °F /  20.3 °C 58.5 °F /  14.7 °C 29.95in /  1014.1hPa ESE 8.4mph /  13.5km/h 24mph /  38.6km/h 70.4% 0.00in /  0mm 374 W/m2
14:49 68.4 °F /  20.2 °C 58.3 °F /  14.6 °C 29.94in /  1013.8hPa East 9.6mph /  15.4km/h 21mph /  33.8km/h 70% 0.00in /  0mm 316 W/m2
14:54 67.8 °F /  19.9 °C 58 °F /  14.4 °C 29.94in /  1013.8hPa East 10.2mph /  16.4km/h 21mph /  33.8km/h 70.6% 0.00in /  0mm 287 W/m2
14:59 67.8 °F /  19.9 °C 58.1 °F /  14.5 °C 29.93in /  1013.4hPa ESE 11.2mph /  18km/h 24mph /  38.6km/h 71% 0.00in /  0mm 329 W/m2
15:04 67.6 °F /  19.8 °C 57.9 °F /  14.4 °C 29.93in /  1013.4hPa East 12.8mph /  20.6km/h 22mph /  35.4km/h 71% 0.00in /  0mm 232 W/m2
15:09 67.5 °F /  19.7 °C 57.8 °F /  14.3 °C 29.93in /  1013.4hPa East 12.2mph /  19.6km/h 23mph /  37km/h 71% 0.00in /  0mm 325 W/m2
15:14 67.8 °F /  19.9 °C 58.1 °F /  14.5 °C 29.93in /  1013.4hPa ESE 8.2mph /  13.2km/h 19mph /  30.6km/h 71% 0.00in /  0mm 339 W/m2
15:19 68.2 °F /  20.1 °C 58.4 °F /  14.7 °C 29.92in /  1013.1hPa ESE 9mph /  14.5km/h 18mph /  29km/h 70.8% 0.00in /  0mm 339 W/m2
15:24 68.5 °F /  20.3 °C 58.3 °F /  14.6 °C 29.92in /  1013.1hPa East 6.7mph /  10.8km/h 18mph /  29km/h 70% 0.00in /  0mm 304 W/m2
15:29 68.5 °F /  20.3 °C 58.3 °F /  14.6 °C 29.91in /  1012.8hPa ESE 9.4mph /  15.1km/h 21mph /  33.8km/h 70% 0.00in /  0mm 292 W/m2
15:34 68.2 °F /  20.1 °C 58.1 °F /  14.5 °C 29.92in /  1013.1hPa East 8.6mph /  13.8km/h 21mph /  33.8km/h 70% 0.00in /  0mm 253 W/m2
15:39 68 °F /  20 °C 57.9 °F /  14.4 °C 29.91in /  1012.8hPa ENE 9.4mph /  15.1km/h 18mph /  29km/h 70% 0.00in /  0mm 253 W/m2
15:44 67.7 °F /  19.8 °C 57.7 °F /  14.3 °C 29.91in /  1012.8hPa ESE 8.2mph /  13.2km/h 15mph /  24.1km/h 70.3% 0.00in /  0mm 165 W/m2
15:49 67.5 °F /  19.7 °C 57.7 °F /  14.3 °C 29.91in /  1012.8hPa ESE 4.9mph /  7.9km/h 15mph /  24.1km/h 71% 0.00in /  0mm 246 W/m2
15:54 66.9 °F /  19.4 °C 57.4 °F /  14.1 °C 29.91in /  1012.8hPa East 7.6mph /  12.2km/h 17mph /  27.4km/h 71.6% 0.00in /  0mm 144 W/m2
15:59 66.6 °F /  19.2 °C 57.2 °F /  14 °C 29.91in /  1012.8hPa East 10.4mph /  16.7km/h 22mph /  35.4km/h 72% 0.00in /  0mm 127 W/m2
16:04 66.2 °F /  19 °C 57 °F /  13.9 °C 29.91in /  1012.8hPa East 9.8mph /  15.8km/h 21mph /  33.8km/h 72.4% 0.00in /  0mm 97 W/m2
16:09 65.7 °F /  18.7 °C 56.8 °F /  13.8 °C 29.91in /  1012.8hPa ENE 6.4mph /  10.3km/h 18mph /  29km/h 72.8% 0.00in /  0mm 97 W/m2
16:14 65.5 °F /  18.6 °C 56.7 °F /  13.7 °C 29.90in /  1012.4hPa ESE 7.2mph /  11.6km/h 19mph /  30.6km/h 73% 0.00in /  0mm 100 W/m2
16:19 65.2 °F /  18.4 °C 56.5 °F /  13.6 °C 29.89in /  1012.1hPa ESE 6.9mph /  11.1km/h 19mph /  30.6km/h 73.4% 0.00in /  0mm 86 W/m2
16:24 64.9 °F /  18.3 °C 56.5 °F /  13.6 °C 29.89in /  1012.1hPa East 9mph /  14.5km/h 16mph /  25.7km/h 74% 0.00in /  0mm 86 W/m2
16:29 64.9 °F /  18.3 °C 56.4 °F /  13.6 °C 29.89in /  1012.1hPa East 8.6mph /  13.8km/h 15mph /  24.1km/h 74% 0.00in /  0mm 91 W/m2
16:34 64.7 °F /  18.2 °C 56.2 °F /  13.4 °C 29.89in /  1012.1hPa East 5.2mph /  8.4km/h 17mph /  27.4km/h 74% 0.00in /  0mm 100 W/m2
16:39 64.5 °F /  18.1 °C 56.2 °F /  13.4 °C 29.89in /  1012.1hPa East 10mph /  16.1km/h 21mph /  33.8km/h 74.4% 0.00in /  0mm 95 W/m2
16:44 64.2 °F /  17.9 °C 56 °F /  13.3 °C 29.89in /  1012.1hPa East 6.4mph /  10.3km/h 16mph /  25.7km/h 74.6% 0.00in /  0mm 86 W/m2
16:49 64 °F /  17.8 °C 55.9 °F /  13.3 °C 29.89in /  1012.1hPa ESE 8.4mph /  13.5km/h 19mph /  30.6km/h 75% 0.00in /  0mm 77 W/m2
16:54 63.9 °F /  17.7 °C 55.8 °F /  13.2 °C 29.89in /  1012.1hPa East 11mph /  17.7km/h 20mph /  32.2km/h 75% 0.00in /  0mm 69 W/m2
16:59 63.8 °F /  17.7 °C 55.7 °F /  13.2 °C 29.89in /  1012.1hPa ESE 6mph /  9.7km/h 17mph /  27.4km/h 75% 0.00in /  0mm 62 W/m2
17:04 63.6 °F /  17.6 °C 55.9 °F /  13.3 °C 29.89in /  1012.1hPa ESE 6.4mph /  10.3km/h 14mph /  22.5km/h 76% 0.00in /  0mm 54 W/m2
17:09 63.3 °F /  17.4 °C 55.6 °F /  13.1 °C 29.89in /  1012.1hPa East 8.9mph /  14.3km/h 23mph /  37km/h 76% 0.00in /  0mm 49 W/m2
17:14 63.2 °F /  17.3 °C 55.5 °F /  13.1 °C 29.89in /  1012.1hPa ESE 5.9mph /  9.5km/h 23mph /  37km/h 76% 0.00in /  0mm 42 W/m2
17:19 63.1 °F /  17.3 °C 55.4 °F /  13 °C 29.88in /  1011.7hPa East 8.4mph /  13.5km/h 18mph /  29km/h 76% 0.00in /  0mm 37 W/m2
17:24 63 °F /  17.2 °C 55.2 °F /  12.9 °C 29.88in /  1011.7hPa East 9.2mph /  14.8km/h 26mph /  41.8km/h 76% 0.00in /  0mm 35 W/m2
17:29 62.8 °F /  17.1 °C 55 °F /  12.8 °C 29.88in /  1011.7hPa East 7.8mph /  12.6km/h 18mph /  29km/h 76% 0.00in /  0mm 32 W/m2
17:34 62.7 °F /  17.1 °C 55 °F /  12.8 °C 29.88in /  1011.7hPa East 8.8mph /  14.2km/h 23mph /  37km/h 76.2% 0.00in /  0mm 26 W/m2
17:39 62.4 °F /  16.9 °C 54.9 °F /  12.7 °C 29.87in /  1011.4hPa ENE 5.7mph /  9.2km/h 13mph /  20.9km/h 76.6% 0.00in /  0mm 23 W/m2
17:44 62.2 °F /  16.8 °C 54.9 °F /  12.7 °C 29.87in /  1011.4hPa East 6.2mph /  10km/h 22mph /  35.4km/h 77% 0.00in /  0mm 18 W/m2
17:49 62.1 °F /  16.7 °C 54.7 °F /  12.6 °C 29.87in /  1011.4hPa East 5.3mph /  8.5km/h 22mph /  35.4km/h 77% 0.00in /  0mm 14 W/m2
17:54 61.9 °F /  16.6 °C 54.7 °F /  12.6 °C 29.87in /  1011.4hPa East 4.8mph /  7.7km/h 17mph /  27.4km/h 77% 0.00in /  0mm 9 W/m2
17:59 61.7 °F /  16.5 °C 54.7 °F /  12.6 °C 29.87in /  1011.4hPa SE 6mph /  9.7km/h 17mph /  27.4km/h 77.6% 0.00in /  0mm 5 W/m2
18:04 61.5 °F /  16.4 °C 54.7 °F /  12.6 °C 29.88in /  1011.7hPa ESE 2.9mph /  4.7km/h 13mph /  20.9km/h 78% 0.00in /  0mm 0 W/m2
18:09 61.3 °F /  16.3 °C 54.5 °F /  12.5 °C 29.88in /  1011.7hPa ESE 4.8mph /  7.7km/h 16mph /  25.7km/h 78% 0.00in /  0mm 0 W/m2
18:14 61.2 °F /  16.2 °C 54.3 °F /  12.4 °C 29.88in /  1011.7hPa East 3.7mph /  6km/h 16mph /  25.7km/h 78% 0.00in /  0mm 0 W/m2
18:19 61.1 °F /  16.2 °C 54.6 °F /  12.6 °C 29.87in /  1011.4hPa East 7mph /  11.3km/h 18mph /  29km/h 79% 0.00in /  0mm 0 W/m2
18:24 61 °F /  16.1 °C 54.5 °F /  12.5 °C 29.87in /  1011.4hPa ESE 9mph /  14.5km/h 24mph /  38.6km/h 79% 0.00in /  0mm 0 W/m2
18:29 61.2 °F /  16.2 °C 54.7 °F /  12.6 °C 29.87in /  1011.4hPa ESE 8mph /  12.9km/h 23mph /  37km/h 79% 0.00in /  0mm 0 W/m2
18:34 61 °F /  16.1 °C 54.7 °F /  12.6 °C 29.87in /  1011.4hPa East 12mph /  19.3km/h 23mph /  37km/h 80% 0.00in /  0mm 0 W/m2
18:39 60.5 °F /  15.8 °C 54.5 °F /  12.5 °C 29.87in /  1011.4hPa East 6mph /  9.7km/h 17mph /  27.4km/h 80.3% 0.00in /  0mm 0 W/m2
18:44 60.2 °F /  15.7 °C 54.3 °F /  12.4 °C 29.88in /  1011.7hPa East 7.2mph /  11.6km/h 15mph /  24.1km/h 81% 0.00in /  0mm 0 W/m2
18:49 60.1 °F /  15.6 °C 54.3 °F /  12.4 °C 29.88in /  1011.7hPa ESE 7.4mph /  11.9km/h 16mph /  25.7km/h 81.2% 0.00in /  0mm 0 W/m2
18:54 60.1 °F /  15.6 °C 54.5 °F /  12.5 °C 29.88in /  1011.7hPa East 7mph /  11.3km/h 17mph /  27.4km/h 82% 0.00in /  0mm 0 W/m2
18:59 59.9 °F /  15.5 °C 54.3 °F /  12.4 °C 29.88in /  1011.7hPa East 8.2mph /  13.2km/h 16mph /  25.7km/h 82% 0.00in /  0mm 0 W/m2
19:04 59.7 °F /  15.4 °C 54.1 °F /  12.3 °C 29.89in /  1012.1hPa East 5.3mph /  8.5km/h 15mph /  24.1km/h 82% 0.00in /  0mm 0 W/m2
19:09 59.7 °F /  15.4 °C 54.1 °F /  12.3 °C 29.89in /  1012.1hPa East 9.2mph /  14.8km/h 21mph /  33.8km/h 82% 0.00in /  0mm 0 W/m2
19:14 59.7 °F /  15.4 °C 54.2 °F /  12.3 °C 29.89in /  1012.1hPa ESE 6.6mph /  10.6km/h 13mph /  20.9km/h 82.2% 0.02in /  0.51mm 0 W/m2
19:19 59.6 °F /  15.3 °C 54.4 °F /  12.4 °C 29.88in /  1011.7hPa ESE 7.6mph /  12.2km/h 16mph /  25.7km/h 83% 0.02in /  0.51mm 0 W/m2
19:24 59.2 °F /  15.1 °C 54.2 °F /  12.3 °C 29.87in /  1011.4hPa ESE 5.6mph /  9km/h 14mph /  22.5km/h 83.8% 0.03in /  0.76mm 0 W/m2
19:29 58.6 °F /  14.8 °C 54.1 °F /  12.3 °C 29.88in /  1011.7hPa East 7.4mph /  11.9km/h 15mph /  24.1km/h 84.8% 0.03in /  0.76mm 0 W/m2
19:34 58.4 °F /  14.7 °C 54.1 °F /  12.3 °C 29.87in /  1011.4hPa ESE 10mph /  16.1km/h 17mph /  27.4km/h 85.8% 0.03in /  0.76mm 0 W/m2
19:39 58 °F /  14.4 °C 54.1 °F /  12.3 °C 29.87in /  1011.4hPa ENE 10mph /  16.1km/h 18mph /  29km/h 86.6% 0.03in /  0.76mm 0 W/m2
19:44 57.9 °F /  14.4 °C 54.1 °F /  12.3 °C 29.86in /  1011.1hPa East 3.6mph /  5.8km/h 15mph /  24.1km/h 87% 0.03in /  0.76mm 0 W/m2
19:49 57.7 °F /  14.3 °C 54 °F /  12.2 °C 29.86in /  1011.1hPa ENE 5.8mph /  9.3km/h 20mph /  32.2km/h 87% 0.03in /  0.76mm 0 W/m2
19:54 57.6 °F /  14.2 °C 54 °F /  12.2 °C 29.86in /  1011.1hPa East 5.8mph /  9.3km/h 21mph /  33.8km/h 88% 0.03in /  0.76mm 0 W/m2
19:59 57.4 °F /  14.1 °C 53.8 °F /  12.1 °C 29.85in /  1010.7hPa ESE 5.8mph /  9.3km/h 16mph /  25.7km/h 88% 0.03in /  0.76mm 0 W/m2
20:04 57.4 °F /  14.1 °C 53.8 °F /  12.1 °C 29.86in /  1011.1hPa East 7.8mph /  12.6km/h 22mph /  35.4km/h 88% 0.03in /  0.76mm 0 W/m2
20:09 57.4 °F /  14.1 °C 53.8 °F /  12.1 °C 29.86in /  1011.1hPa SE 6.8mph /  10.9km/h 12mph /  19.3km/h 88% 0.03in /  0.76mm 0 W/m2
20:14 57.4 °F /  14.1 °C 53.9 °F /  12.2 °C 29.86in /  1011.1hPa ESE 6.7mph /  10.8km/h 14mph /  22.5km/h 88.4% 0.03in /  0.76mm 0 W/m2
20:19 57.5 °F /  14.2 °C 54.2 °F /  12.3 °C 29.87in /  1011.4hPa ESE 5mph /  8km/h 14mph /  22.5km/h 89% 0.02in /  0.51mm 0 W/m2
20:24 57.6 °F /  14.2 °C 54.3 °F /  12.4 °C 29.87in /  1011.4hPa East 5.7mph /  9.2km/h 15mph /  24.1km/h 89% 0.01in /  0.25mm 0 W/m2
20:29 57.7 °F /  14.3 °C 54.5 °F /  12.5 °C 29.87in /  1011.4hPa ESE 3.2mph /  5.1km/h 14mph /  22.5km/h 89% 0.00in /  0mm 0 W/m2
20:34 57.7 °F /  14.3 °C 54.5 °F /  12.5 °C 29.87in /  1011.4hPa ESE 5.3mph /  8.5km/h 14mph /  22.5km/h 89% 0.00in /  0mm 0 W/m2
20:39 57.7 °F /  14.3 °C 54.5 °F /  12.5 °C 29.87in /  1011.4hPa East 6.3mph /  10.1km/h 16mph /  25.7km/h 89% 0.00in /  0mm 0 W/m2
20:44 57.9 °F /  14.4 °C 54.7 °F /  12.6 °C 29.86in /  1011.1hPa ESE 7mph /  11.3km/h 16mph /  25.7km/h 89% 0.00in /  0mm 0 W/m2
20:49 57.9 °F /  14.4 °C 54.7 °F /  12.6 °C 29.86in /  1011.1hPa ENE 3.4mph /  5.5km/h 15mph /  24.1km/h 89% 0.00in /  0mm 0 W/m2
20:54 57.9 °F /  14.4 °C 54.7 °F /  12.6 °C 29.87in /  1011.4hPa SE 3.2mph /  5.1km/h 11mph /  17.7km/h 89% 0.00in /  0mm 0 W/m2
20:59 58.1 °F /  14.5 °C 54.5 °F /  12.5 °C 29.86in /  1011.1hPa East 4.7mph /  7.6km/h 13mph /  20.9km/h 88.2% 0.00in /  0mm 0 W/m2
21:04 58.1 °F /  14.5 °C 54.5 °F /  12.5 °C 29.86in /  1011.1hPa SE 4.1mph /  6.6km/h 11mph /  17.7km/h 88% 0.00in /  0mm 0 W/m2
21:09 58 °F /  14.4 °C 54.4 °F /  12.4 °C 29.86in /  1011.1hPa ESE 3.8mph /  6.1km/h 8mph /  12.9km/h 88% 0.00in /  0mm 0 W/m2
21:14 58 °F /  14.4 °C 54.4 °F /  12.4 °C 29.86in /  1011.1hPa ESE 6mph /  9.7km/h 12mph /  19.3km/h 88% 0.00in /  0mm 0 W/m2
21:19 58.3 °F /  14.6 °C 54.7 °F /  12.6 °C 29.86in /  1011.1hPa East 3.6mph /  5.8km/h 11mph /  17.7km/h 88% 0.00in /  0mm 0 W/m2
21:24 58.3 °F /  14.6 °C 54.7 °F /  12.6 °C 29.85in /  1010.7hPa East 7.4mph /  11.9km/h 12mph /  19.3km/h 88% 0.00in /  0mm 0 W/m2
21:29 58.3 °F /  14.6 °C 54.7 °F /  12.6 °C 29.84in /  1010.4hPa ESE 4.8mph /  7.7km/h 13mph /  20.9km/h 88% 0.00in /  0mm 0 W/m2
21:34 58.3 °F /  14.6 °C 54.7 °F /  12.6 °C 29.85in /  1010.7hPa ESE 6.8mph /  10.9km/h 14mph /  22.5km/h 88% 0.00in /  0mm 0 W/m2
21:39 58.3 °F /  14.6 °C 54.7 °F /  12.6 °C 29.85in /  1010.7hPa ESE 5.8mph /  9.3km/h 9mph /  14.5km/h 88% 0.00in /  0mm 0 W/m2
21:44 58.3 °F /  14.6 °C 54.7 °F /  12.6 °C 29.85in /  1010.7hPa ESE 4mph /  6.4km/h 9mph /  14.5km/h 88% 0.00in /  0mm 0 W/m2
21:49 58.4 °F /  14.7 °C 54.8 °F /  12.7 °C 29.85in /  1010.7hPa ESE 5.3mph /  8.5km/h 12mph /  19.3km/h 88% 0.00in /  0mm 0 W/m2
21:54 58.3 °F /  14.6 °C 54.7 °F /  12.6 °C 29.85in /  1010.7hPa ESE 5.8mph /  9.3km/h 14mph /  22.5km/h 88% 0.00in /  0mm 0 W/m2
21:59 58.3 °F /  14.6 °C 54.7 °F /  12.6 °C 29.84in /  1010.4hPa ESE 5.2mph /  8.4km/h 12mph /  19.3km/h 88% 0.00in /  0mm 0 W/m2
22:04 58.2 °F /  14.6 °C 54.6 °F /  12.6 °C 29.84in /  1010.4hPa SE 4.2mph /  6.8km/h 14mph /  22.5km/h 88% 0.00in /  0mm 0 W/m2
22:09 58.2 °F /  14.6 °C 54.6 °F /  12.6 °C 29.84in /  1010.4hPa SE 4.8mph /  7.7km/h 16mph /  25.7km/h 88% 0.00in /  0mm 0 W/m2
22:14 58.3 °F /  14.6 °C 54.7 °F /  12.6 °C 29.84in /  1010.4hPa ESE 5.2mph /  8.4km/h 12mph /  19.3km/h 88% 0.00in /  0mm 0 W/m2
22:19 58.3 °F /  14.6 °C 54.7 °F /  12.6 °C 29.84in /  1010.4hPa ESE 6.4mph /  10.3km/h 13mph /  20.9km/h 88% 0.00in /  0mm 0 W/m2
22:24 58.3 °F /  14.6 °C 54.7 °F /  12.6 °C 29.84in /  1010.4hPa East 7mph /  11.3km/h 10mph /  16.1km/h 88% 0.00in /  0mm 0 W/m2
22:29 58.3 °F /  14.6 °C 54.7 °F /  12.6 °C 29.84in /  1010.4hPa ESE 5.6mph /  9km/h 12mph /  19.3km/h 88% 0.00in /  0mm 0 W/m2
22:34 58.3 °F /  14.6 °C 54.7 °F /  12.6 °C 29.84in /  1010.4hPa ESE 3.2mph /  5.1km/h 10mph /  16.1km/h 88% 0.00in /  0mm 0 W/m2
22:39 58.5 °F /  14.7 °C 55 °F /  12.8 °C 29.84in /  1010.4hPa SE 3.5mph /  5.6km/h 6mph /  9.7km/h 88.6% 0.00in /  0mm 0 W/m2
22:44 58.5 °F /  14.7 °C 55.2 °F /  12.9 °C 29.85in /  1010.7hPa East 4.4mph /  7.1km/h 8mph /  12.9km/h 89% 0.00in /  0mm 0 W/m2
22:49 58.5 °F /  14.7 °C 55.2 °F /  12.9 °C 29.85in /  1010.7hPa SE 2.2mph /  3.5km/h 7mph /  11.3km/h 89% 0.00in /  0mm 0 W/m2
22:54 58.5 °F /  14.7 °C 55.2 °F /  12.9 °C 29.85in /  1010.7hPa ESE 3.4mph /  5.5km/h 10mph /  16.1km/h 89% 0.00in /  0mm 0 W/m2
22:59 58.6 °F /  14.8 °C 55.4 °F /  13 °C 29.84in /  1010.4hPa ESE 3.9mph /  6.3km/h 9mph /  14.5km/h 89% 0.00in /  0mm 0 W/m2
23:04 58.6 °F /  14.8 °C 55.4 °F /  13 °C 29.84in /  1010.4hPa East 6.6mph /  10.6km/h 10mph /  16.1km/h 89% 0.00in /  0mm 0 W/m2
23:09 58.6 °F /  14.8 °C 55.4 °F /  13 °C 29.84in /  1010.4hPa ESE 3.5mph /  5.6km/h 11mph /  17.7km/h 89% 0.00in /  0mm 0 W/m2
23:14 58.7 °F /  14.8 °C 55.5 °F /  13.1 °C 29.84in /  1010.4hPa ESE 3.1mph /  5km/h 10mph /  16.1km/h 89% 0.00in /  0mm 0 W/m2
23:19 58.8 °F /  14.9 °C 55.6 °F /  13.1 °C 29.84in /  1010.4hPa ESE 3.7mph /  6km/h 9mph /  14.5km/h 89% 0.00in /  0mm 0 W/m2
23:24 58.8 °F /  14.9 °C 55.6 °F /  13.1 °C 29.83in /  1010hPa East 4.9mph /  7.9km/h 10mph /  16.1km/h 89% 0.00in /  0mm 0 W/m2
23:29 58.8 °F /  14.9 °C 55.6 °F /  13.1 °C 29.83in /  1010hPa ESE 4mph /  6.4km/h 9mph /  14.5km/h 89% 0.00in /  0mm 0 W/m2
23:34 58.8 °F /  14.9 °C 55.6 °F /  13.1 °C 29.82in /  1009.7hPa ESE 5.8mph /  9.3km/h 13mph /  20.9km/h 89% 0.00in /  0mm 0 W/m2
23:39 58.8 °F /  14.9 °C 55.6 °F /  13.1 °C 29.82in /  1009.7hPa East 5.9mph /  9.5km/h 11mph /  17.7km/h 89% 0.00in /  0mm 0 W/m2
23:44 58.8 °F /  14.9 °C 55.8 °F /  13.2 °C 29.82in /  1009.7hPa East 4.8mph /  7.7km/h 11mph /  17.7km/h 89.8% 0.00in /  0mm 0 W/m2
23:49 58.7 °F /  14.8 °C 55.7 °F /  13.2 °C 29.81in /  1009.4hPa East 3.6mph /  5.8km/h 9mph /  14.5km/h 89.6% 0.00in /  0mm 0 W/m2
23:54 58.7 °F /  14.8 °C 55.8 °F /  13.2 °C 29.80in /  1009hPa East 4.8mph /  7.7km/h 9mph /  14.5km/h 90% 0.00in /  0mm 0 W/m2
23:59 58.7 °F /  14.8 °C 55.9 °F /  13.3 °C 29.80in /  1009hPa ENE 3.7mph /  6km/h 9mph /  14.5km/h 90% 0.00in /  0mm 0 W/m2
Bath Spa Weather
Compliments of Weather Underground - 2 mb